Time;durP1;ratioP1;P1;durP2;ratioP2;P2;SDS_P1;SDS_P2;PMS_P1;PMS_P2;Temp;Humidity;BMP_temperature;BMP_pressure;BME280_temperature;BME280_humidity;BME280_pressure;Samples;Min_cycle;Max_cycle;Signal;HPM_P1;HPM_P2
2023/03/12 00:02:17;;;;;;;9.70;7.37;;;;;;;;;;5082852;28;20473;-63
2023/03/12 00:04:44;;;;;;;11.23;6.33;;;;;;;;;;5082155;28;20459;-62
2023/03/12 00:07:10;;;;;;;9.00;5.37;;;;;;;;;;5092015;28;21168;-62
2023/03/12 00:09:37;;;;;;;6.93;6.23;;;;;;;;;;5080763;28;20460;-62
2023/03/12 00:12:04;;;;;;;11.47;5.80;;;;;;;;;;5101932;28;21008;-63
2023/03/12 00:14:31;;;;;;;8.53;6.13;;;;;;;;;;5095054;28;20503;-59
2023/03/12 00:16:58;;;;;;;10.10;7.10;;;;;;;;;;5083255;28;20527;-60
2023/03/12 00:19:28;;;;;;;8.33;6.20;;;;;;;;;;5082578;28;20479;-60
2023/03/12 00:21:54;;;;;;;14.77;6.77;;;;;;;;;;5082595;28;20992;-60
2023/03/12 00:24:21;;;;;;;8.60;6.00;;;;;;;;;;5083568;28;20473;-60
2023/03/12 00:26:47;;;;;;;10.27;9.03;;;;;;;;;;5102800;28;20471;-60
2023/03/12 00:29:13;;;;;;;11.83;6.37;;;;;;;;;;5102279;28;20475;-60
2023/03/12 00:31:40;;;;;;;10.70;5.73;;;;;;;;;;5102258;28;20520;-60
2023/03/12 00:34:09;;;;;;;9.17;6.87;;;;;;;;;;5102353;28;20492;-59
2023/03/12 00:36:35;;;;;;;8.13;6.67;;;;;;;;;;5101331;28;20514;-60
2023/03/12 00:39:02;;;;;;;11.10;6.60;;;;;;;;;;5102607;28;20455;-60
2023/03/12 00:41:29;;;;;;;9.03;6.97;;;;;;;;;;5102090;28;20548;-60
2023/03/12 00:43:55;;;;;;;10.07;7.80;;;;;;;;;;5101289;28;20460;-60
2023/03/12 00:46:22;;;;;;;12.27;8.10;;;;;;;;;;5101009;28;20561;-60
2023/03/12 00:48:48;;;;;;;15.90;7.87;;;;;;;;;;5095434;28;20551;-60
2023/03/12 00:51:16;;;;;;;10.73;8.80;;;;;;;;;;5098269;28;20498;-60
2023/03/12 00:53:43;;;;;;;14.80;8.00;;;;;;;;;;5087928;28;20492;-59
2023/03/12 00:56:09;;;;;;;12.07;8.30;;;;;;;;;;5082051;28;20505;-60
2023/03/12 00:58:35;;;;;;;11.07;8.70;;;;;;;;;;5089069;28;20460;-60
2023/03/12 01:01:02;;;;;;;13.37;9.17;;;;;;;;;;5081509;28;20575;-60
2023/03/12 01:03:28;;;;;;;12.77;9.87;;;;;;;;;;5081700;28;20947;-60
2023/03/12 01:05:55;;;;;;;11.03;9.10;;;;;;;;;;5081871;28;20980;-60
2023/03/12 01:08:23;;;;;;;10.77;8.87;;;;;;;;;;5092386;28;20490;-60
2023/03/12 01:10:49;;;;;;;13.20;9.17;;;;;;;;;;5101664;28;20509;-60
2023/03/12 01:13:16;;;;;;;12.10;9.20;;;;;;;;;;5101168;28;20471;-60
2023/03/12 01:15:42;;;;;;;13.60;9.90;;;;;;;;;;5101259;28;20501;-60
2023/03/12 01:18:09;;;;;;;10.93;8.30;;;;;;;;;;5098617;28;20436;-60
2023/03/12 01:20:35;;;;;;;10.63;8.20;;;;;;;;;;5095868;28;20498;-61
2023/03/12 01:23:02;;;;;;;15.40;8.70;;;;;;;;;;5091602;28;20465;-61
2023/03/12 01:25:30;;;;;;;14.87;9.20;;;;;;;;;;5101587;28;20860;-60
2023/03/12 01:27:56;;;;;;;11.90;8.30;;;;;;;;;;5101528;28;20475;-59
2023/03/12 01:30:23;;;;;;;11.27;8.03;;;;;;;;;;5099706;28;20456;-60
2023/03/12 01:32:49;;;;;;;24.83;13.33;;;;;;;;;;5085340;28;20515;-59
2023/03/12 01:35:15;;;;;;;16.10;10.10;;;;;;;;;;5088926;28;20587;-59
2023/03/12 01:37:42;;;;;;;14.33;9.63;;;;;;;;;;5086442;28;20458;-60
2023/03/12 01:40:13;;;;;;;13.00;9.60;;;;;;;;;;5089834;28;20480;-59
2023/03/12 01:42:41;;;;;;;11.97;9.93;;;;;;;;;;5099042;28;20461;-60
2023/03/12 01:45:22;;;;;;;14.40;9.10;;;;;;;;;;5100712;28;20492;-60
2023/03/12 01:47:48;;;;;;;12.10;8.70;;;;;;;;;;5080249;28;20500;-60
2023/03/12 01:50:15;;;;;;;14.83;9.57;;;;;;;;;;5081712;28;20472;-60
2023/03/12 01:52:41;;;;;;;14.80;9.07;;;;;;;;;;5091302;28;20906;-60
2023/03/12 01:55:09;;;;;;;11.33;8.83;;;;;;;;;;5083368;28;20845;-60
2023/03/12 01:57:37;;;;;;;13.67;9.33;;;;;;;;;;5080847;28;20448;-61
2023/03/12 02:00:08;;;;;;;12.33;7.97;;;;;;;;;;5084625;28;20495;-60
2023/03/12 02:02:35;;;;;;;13.43;8.73;;;;;;;;;;5087066;28;20571;-60
2023/03/12 02:05:06;;;;;;;10.10;8.80;;;;;;;;;;5084650;28;20472;-60
2023/03/12 02:07:33;;;;;;;12.97;10.60;;;;;;;;;;5094007;28;20954;-60
2023/03/12 02:10:00;;;;;;;12.17;9.20;;;;;;;;;;5088026;28;20531;-60
2023/03/12 02:12:26;;;;;;;15.17;9.00;;;;;;;;;;5082992;28;20536;-60
2023/03/12 02:14:52;;;;;;;14.07;9.40;;;;;;;;;;5088794;28;20927;-60
2023/03/12 02:17:20;;;;;;;19.63;9.90;;;;;;;;;;5094142;28;20475;-59
2023/03/12 02:19:50;;;;;;;13.23;9.30;;;;;;;;;;5089049;28;20462;-59
2023/03/12 02:22:16;;;;;;;13.83;10.17;;;;;;;;;;5082417;28;20570;-60
2023/03/12 02:24:45;;;;;;;12.50;9.23;;;;;;;;;;5088293;28;20898;-60
2023/03/12 02:27:12;;;;;;;14.77;8.20;;;;;;;;;;5092792;28;20912;-60
2023/03/12 02:29:40;;;;;;;14.00;8.97;;;;;;;;;;5083848;28;20451;-60
2023/03/12 02:32:08;;;;;;;10.33;8.33;;;;;;;;;;5079920;28;20520;-60
2023/03/12 02:34:34;;;;;;;13.67;8.73;;;;;;;;;;5087708;28;20548;-60
2023/03/12 02:37:01;;;;;;;10.17;7.80;;;;;;;;;;5091794;28;20481;-60
2023/03/12 02:39:27;;;;;;;15.03;8.57;;;;;;;;;;5099668;28;21043;-60
2023/03/12 02:41:56;;;;;;;13.30;9.40;;;;;;;;;;5079125;28;20926;-60
2023/03/12 02:44:25;;;;;;;14.13;9.60;;;;;;;;;;5097987;28;20836;-60
2023/03/12 02:46:52;;;;;;;10.40;8.60;;;;;;;;;;5084868;28;20511;-61
2023/03/12 02:49:20;;;;;;;10.87;8.43;;;;;;;;;;5084111;28;20455;-60
2023/03/12 02:51:48;;;;;;;12.77;8.90;;;;;;;;;;5086455;28;20587;-61
2023/03/12 02:54:15;;;;;;;13.27;8.70;;;;;;;;;;5083935;28;20488;-60
2023/03/12 02:56:42;;;;;;;9.40;8.20;;;;;;;;;;5083751;28;20504;-60
2023/03/12 02:59:09;;;;;;;11.83;8.80;;;;;;;;;;5097051;28;20465;-60
2023/03/12 03:01:37;;;;;;;14.77;9.30;;;;;;;;;;5088235;28;20512;-59
2023/03/12 03:04:04;;;;;;;11.47;8.50;;;;;;;;;;5094283;28;20474;-60
2023/03/12 03:06:31;;;;;;;16.47;10.47;;;;;;;;;;5090113;28;20502;-60
2023/03/12 03:08:57;;;;;;;21.77;15.23;;;;;;;;;;5083576;28;20463;-60
2023/03/12 03:11:24;;;;;;;17.90;10.57;;;;;;;;;;5095417;28;20595;-60
2023/03/12 03:13:50;;;;;;;18.92;11.45;;;;;;;;;;5084622;28;20494;-60
2023/03/12 03:16:17;;;;;;;12.53;9.80;;;;;;;;;;5092670;28;20303;-60
2023/03/12 03:18:45;;;;;;;12.30;8.87;;;;;;;;;;5085028;28;20467;-60
2023/03/12 03:21:15;;;;;;;10.93;9.17;;;;;;;;;;5084061;28;20569;-60
2023/03/12 03:23:42;;;;;;;13.70;8.03;;;;;;;;;;5083590;28;20455;-59
2023/03/12 03:26:08;;;;;;;16.20;10.40;;;;;;;;;;5095769;28;20490;-60
2023/03/12 03:28:35;;;;;;;10.83;8.20;;;;;;;;;;5085380;28;20443;-60
2023/03/12 03:31:01;;;;;;;14.73;10.17;;;;;;;;;;5078533;28;20498;-60
2023/03/12 03:33:28;;;;;;;13.83;9.37;;;;;;;;;;5096473;28;20447;-60
2023/03/12 03:35:56;;;;;;;10.80;8.93;;;;;;;;;;5091506;28;20907;-60
2023/03/12 03:38:23;;;;;;;12.10;9.00;;;;;;;;;;5084720;28;20488;-60
2023/03/12 03:40:50;;;;;;;13.20;8.97;;;;;;;;;;5096596;28;20568;-60
2023/03/12 03:43:16;;;;;;;12.70;8.97;;;;;;;;;;5083394;28;20457;-60
2023/03/12 03:45:43;;;;;;;12.20;8.80;;;;;;;;;;5082352;28;20486;-60
2023/03/12 03:48:16;;;;;;;12.57;7.40;;;;;;;;;;5092149;28;20446;-59
2023/03/12 03:50:43;;;;;;;9.30;7.50;;;;;;;;;;5088945;28;20499;-60
2023/03/12 03:53:11;;;;;;;10.20;7.20;;;;;;;;;;5081992;28;20495;-60
2023/03/12 03:55:37;;;;;;;8.37;6.37;;;;;;;;;;5086774;28;20479;-60
2023/03/12 03:58:04;;;;;;;11.10;7.40;;;;;;;;;;5090976;28;20472;-60
2023/03/12 04:00:30;;;;;;;6.83;6.13;;;;;;;;;;5081414;28;20497;-59
2023/03/12 04:02:57;;;;;;;6.57;5.80;;;;;;;;;;5094034;28;20441;-59
2023/03/12 04:05:24;;;;;;;11.47;5.20;;;;;;;;;;5084643;28;20484;-59
2023/03/12 04:07:52;;;;;;;5.67;4.83;;;;;;;;;;5083109;28;20492;-60
2023/03/12 04:10:20;;;;;;;7.63;5.30;;;;;;;;;;5082045;28;20455;-60
2023/03/12 04:12:46;;;;;;;6.93;4.83;;;;;;;;;;5086262;28;20543;-60
2023/03/12 04:15:13;;;;;;;4.77;4.27;;;;;;;;;;5081377;28;20539;-60
2023/03/12 04:17:39;;;;;;;10.53;4.20;;;;;;;;;;5079396;28;20524;-59
2023/03/12 04:20:08;;;;;;;5.50;4.07;;;;;;;;;;5099722;28;20509;-60
2023/03/12 04:22:34;;;;;;;5.03;3.70;;;;;;;;;;5099601;28;20559;-59
2023/03/12 04:25:01;;;;;;;7.30;4.40;;;;;;;;;;5095486;28;20453;-60
2023/03/12 04:27:29;;;;;;;10.33;4.37;;;;;;;;;;5091924;28;20486;-60
2023/03/12 04:29:55;;;;;;;4.00;3.63;;;;;;;;;;5088059;28;20507;-60
2023/03/12 04:32:22;;;;;;;6.63;4.20;;;;;;;;;;5083181;28;20476;-60
2023/03/12 04:34:48;;;;;;;7.00;3.90;;;;;;;;;;5092748;28;20553;-60
2023/03/12 04:37:15;;;;;;;5.03;4.50;;;;;;;;;;5090831;28;20510;-60
2023/03/12 04:39:41;;;;;;;5.73;5.13;;;;;;;;;;5095630;28;20511;-60
2023/03/12 04:42:08;;;;;;;5.90;3.80;;;;;;;;;;5087383;28;20507;-60
2023/03/12 04:44:36;;;;;;;5.30;3.60;;;;;;;;;;5093147;28;20455;-60
2023/03/12 04:47:03;;;;;;;10.40;4.80;;;;;;;;;;5083972;28;20488;-59
2023/03/12 04:49:29;;;;;;;8.43;4.20;;;;;;;;;;5081792;28;20472;-60
2023/03/12 04:51:56;;;;;;;5.83;4.40;;;;;;;;;;5087955;28;20622;-60
2023/03/12 04:54:22;;;;;;;7.43;4.10;;;;;;;;;;5088538;28;20486;-60
2023/03/12 04:56:49;;;;;;;6.60;3.83;;;;;;;;;;5086599;28;21024;-60
2023/03/12 04:59:15;;;;;;;6.70;4.20;;;;;;;;;;5096948;28;20512;-60
2023/03/12 05:01:43;;;;;;;10.53;4.50;;;;;;;;;;5088033;28;20513;-60
2023/03/12 05:04:10;;;;;;;6.70;4.13;;;;;;;;;;5091968;28;20471;-60
2023/03/12 05:06:36;;;;;;;7.73;5.07;;;;;;;;;;5088878;27;20489;-60
2023/03/12 05:09:03;;;;;;;7.20;4.90;;;;;;;;;;5092579;28;20768;-60
2023/03/12 05:11:29;;;;;;;4.47;3.23;;;;;;;;;;5084807;28;21004;-60
2023/03/12 05:13:55;;;;;;;6.57;3.73;;;;;;;;;;5080985;28;20491;-60
2023/03/12 05:16:22;;;;;;;3.73;3.43;;;;;;;;;;5094371;28;20502;-60
2023/03/12 05:18:50;;;;;;;5.03;3.43;;;;;;;;;;5083811;28;20468;-60
2023/03/12 05:21:17;;;;;;;7.70;5.83;;;;;;;;;;5080941;28;20486;-60
2023/03/12 05:23:44;;;;;;;10.13;5.23;;;;;;;;;;5095056;28;20452;-59
2023/03/12 05:26:15;;;;;;;6.00;5.00;;;;;;;;;;5085123;28;20569;-60
2023/03/12 05:28:42;;;;;;;4.80;4.30;;;;;;;;;;5081451;28;20500;-60
2023/03/12 05:31:09;;;;;;;6.30;4.40;;;;;;;;;;5082076;28;20516;-60
2023/03/12 05:33:36;;;;;;;8.20;5.47;;;;;;;;;;5088096;28;20442;-60
2023/03/12 05:36:04;;;;;;;6.40;4.63;;;;;;;;;;5087317;28;20511;-60
2023/03/12 05:38:30;;;;;;;5.90;4.50;;;;;;;;;;5061299;28;20521;-60
2023/03/12 05:40:58;;;;;;;6.40;4.53;;;;;;;;;;5080348;28;20476;-60
2023/03/12 05:43:24;;;;;;;6.03;4.40;;;;;;;;;;5089902;28;20445;-60
2023/03/12 05:45:51;;;;;;;6.10;4.47;;;;;;;;;;5086488;28;20504;-60
2023/03/12 05:48:17;;;;;;;10.03;5.40;;;;;;;;;;5082030;28;20535;-61
2023/03/12 05:50:44;;;;;;;4.73;4.03;;;;;;;;;;5083521;28;20483;-60
2023/03/12 05:53:12;;;;;;;5.43;4.90;;;;;;;;;;5086109;28;20448;-60
2023/03/12 05:55:39;;;;;;;6.10;5.10;;;;;;;;;;5091698;28;20483;-60
2023/03/12 05:58:06;;;;;;;7.80;4.67;;;;;;;;;;5094195;28;20541;-59
2023/03/12 06:00:34;;;;;;;8.33;5.00;;;;;;;;;;5081242;28;20491;-60
2023/03/12 06:03:01;;;;;;;8.40;5.40;;;;;;;;;;5080913;28;20451;-60
2023/03/12 06:05:27;;;;;;;7.00;5.30;;;;;;;;;;5082643;28;20492;-60
2023/03/12 06:07:53;;;;;;;8.63;5.10;;;;;;;;;;5087072;28;20850;-60
2023/03/12 06:10:21;;;;;;;6.93;4.90;;;;;;;;;;5093379;28;20499;-60
2023/03/12 06:12:47;;;;;;;6.47;5.73;;;;;;;;;;5089338;28;20440;-60
2023/03/12 06:15:14;;;;;;;9.60;5.80;;;;;;;;;;5088959;27;20904;-60
2023/03/12 06:17:40;;;;;;;13.80;6.03;;;;;;;;;;5085729;28;20507;-60
2023/03/12 06:20:07;;;;;;;12.40;5.73;;;;;;;;;;5083796;28;20479;-60
2023/03/12 06:22:34;;;;;;;10.13;5.97;;;;;;;;;;5089173;28;20475;-60
2023/03/12 06:25:00;;;;;;;6.37;4.73;;;;;;;;;;5092903;28;20455;-59
2023/03/12 06:27:28;;;;;;;6.30;5.27;;;;;;;;;;5104781;28;20518;-60
2023/03/12 06:29:55;;;;;;;9.10;5.60;;;;;;;;;;5101492;28;20869;-60
2023/03/12 06:32:21;;;;;;;7.10;5.93;;;;;;;;;;5092698;28;20507;-59
2023/03/12 06:34:47;;;;;;;6.53;5.70;;;;;;;;;;5089067;28;20543;-59
2023/03/12 06:37:14;;;;;;;9.50;6.10;;;;;;;;;;5090132;27;20503;-60
2023/03/12 06:39:40;;;;;;;6.40;5.67;;;;;;;;;;5091237;28;20582;-60
2023/03/12 06:42:07;;;;;;;7.53;5.97;;;;;;;;;;5089343;28;20936;-60
2023/03/12 06:44:35;;;;;;;17.57;11.73;;;;;;;;;;5088971;28;20474;-60
2023/03/12 06:47:01;;;;;;;18.50;10.13;;;;;;;;;;5084293;28;20516;-60
2023/03/12 06:49:31;;;;;;;6.83;5.00;;;;;;;;;;5087979;28;20502;-60
2023/03/12 06:51:57;;;;;;;12.37;8.93;;;;;;;;;;5087558;28;20480;-60
2023/03/12 06:54:23;;;;;;;6.33;5.40;;;;;;;;;;5084226;28;20456;-59
2023/03/12 06:56:50;;;;;;;9.17;5.57;;;;;;;;;;5088843;28;20527;-60
2023/03/12 06:59:17;;;;;;;8.73;6.17;;;;;;;;;;5093128;28;20510;-60
2023/03/12 07:01:45;;;;;;;8.00;5.53;;;;;;;;;;5087277;28;20503;-60
2023/03/12 07:04:11;;;;;;;7.60;5.77;;;;;;;;;;5083869;28;20482;-60
2023/03/12 07:06:37;;;;;;;7.70;6.90;;;;;;;;;;5087976;28;20496;-60
2023/03/12 07:09:04;;;;;;;6.83;5.27;;;;;;;;;;5090774;28;20458;-60
2023/03/12 07:11:31;;;;;;;7.90;4.33;;;;;;;;;;5096129;28;20489;-60
2023/03/12 07:13:57;;;;;;;10.07;6.30;;;;;;;;;;5095858;28;20474;-60
2023/03/12 07:16:23;;;;;;;7.00;5.70;;;;;;;;;;5087245;28;20571;-60
2023/03/12 07:18:51;;;;;;;7.83;6.37;;;;;;;;;;5091497;28;20498;-60
2023/03/12 07:21:21;;;;;;;9.33;7.90;;;;;;;;;;5090127;28;20564;-60
2023/03/12 07:23:48;;;;;;;13.47;9.63;;;;;;;;;;5103467;28;20456;-59
2023/03/12 07:26:14;;;;;;;10.63;8.03;;;;;;;;;;5103670;27;20495;-60
2023/03/12 07:28:41;;;;;;;14.10;12.60;;;;;;;;;;5103371;28;20470;-60
2023/03/12 07:31:07;;;;;;;10.77;7.57;;;;;;;;;;5102599;28;20489;-61
2023/03/12 07:33:34;;;;;;;6.23;5.50;;;;;;;;;;5101811;28;20433;-60
2023/03/12 07:36:02;;;;;;;7.70;5.57;;;;;;;;;;5101684;27;20511;-61
2023/03/12 07:38:28;;;;;;;5.70;4.73;;;;;;;;;;5103793;28;20454;-61
2023/03/12 07:40:55;;;;;;;8.57;5.73;;;;;;;;;;5102560;28;20506;-61
2023/03/12 07:43:22;;;;;;;6.70;5.50;;;;;;;;;;5104153;28;20461;-60
2023/03/12 07:45:49;;;;;;;7.40;6.70;;;;;;;;;;5102821;28;20508;-60
2023/03/12 07:48:18;;;;;;;6.50;4.67;;;;;;;;;;5102422;28;20481;-60
2023/03/12 07:50:44;;;;;;;6.93;5.17;;;;;;;;;;5082451;28;20485;-60
2023/03/12 07:53:12;;;;;;;5.63;4.07;;;;;;;;;;5101202;28;20453;-61
2023/03/12 07:55:38;;;;;;;9.10;4.80;;;;;;;;;;5095177;27;20519;-60
2023/03/12 07:58:05;;;;;;;9.13;4.60;;;;;;;;;;5088949;28;20470;-60
2023/03/12 08:00:31;;;;;;;12.03;7.53;;;;;;;;;;5102292;28;20492;-60
2023/03/12 08:02:58;;;;;;;5.83;4.37;;;;;;;;;;5081198;28;20480;-60
2023/03/12 08:05:25;;;;;;;5.80;3.90;;;;;;;;;;5082792;27;20494;-60
2023/03/12 08:07:52;;;;;;;5.60;4.43;;;;;;;;;;5102810;28;20454;-60
2023/03/12 08:10:20;;;;;;;2.90;2.20;;;;;;;;;;5103113;28;20474;-60
2023/03/12 08:12:47;;;;;;;4.97;3.13;;;;;;;;;;5103090;28;20541;-60
2023/03/12 08:15:13;;;;;;;10.03;2.00;;;;;;;;;;5101981;27;20854;-63
2023/03/12 08:17:40;;;;;;;2.87;2.40;;;;;;;;;;5103253;28;20503;-63
2023/03/12 08:20:08;;;;;;;2.60;1.97;;;;;;;;;;5087484;28;20514;-63
2023/03/12 08:22:35;;;;;;;5.70;3.07;;;;;;;;;;5083639;28;20468;-63
2023/03/12 08:25:01;;;;;;;3.10;1.90;;;;;;;;;;5082368;28;20512;-63
2023/03/12 08:27:29;;;;;;;3.00;1.70;;;;;;;;;;5099019;28;20487;-63
2023/03/12 08:29:55;;;;;;;2.63;1.90;;;;;;;;;;5084597;28;20515;-63
2023/03/12 08:32:22;;;;;;;3.90;1.97;;;;;;;;;;5082768;28;20495;-63
2023/03/12 08:34:48;;;;;;;10.10;4.30;;;;;;;;;;5083334;28;20581;-63
2023/03/12 08:37:15;;;;;;;4.70;2.20;;;;;;;;;;5086413;28;20497;-64
2023/03/12 08:39:41;;;;;;;9.70;5.73;;;;;;;;;;5079722;28;20542;-63
2023/03/12 08:42:08;;;;;;;3.67;2.17;;;;;;;;;;5086307;28;20488;-63
2023/03/12 08:44:35;;;;;;;3.53;2.23;;;;;;;;;;5090155;28;20487;-64
2023/03/12 08:47:02;;;;;;;12.73;6.77;;;;;;;;;;5089176;28;20510;-64
2023/03/12 08:49:28;;;;;;;4.50;2.43;;;;;;;;;;5082322;28;20484;-64
2023/03/12 08:51:55;;;;;;;4.37;2.57;;;;;;;;;;5081745;28;20490;-63
2023/03/12 08:54:21;;;;;;;14.70;12.00;;;;;;;;;;5082150;28;20456;-64
2023/03/12 08:56:50;;;;;;;4.27;2.80;;;;;;;;;;5087266;27;20481;-64
2023/03/12 08:59:17;;;;;;;5.20;3.20;;;;;;;;;;5080833;28;20449;-64
2023/03/12 09:01:45;;;;;;;6.63;2.97;;;;;;;;;;5082088;28;20502;-63
2023/03/12 09:04:11;;;;;;;4.17;2.77;;;;;;;;;;5081803;28;20483;-64
2023/03/12 09:06:38;;;;;;;8.50;2.67;;;;;;;;;;5090689;28;20502;-64
2023/03/12 09:09:04;;;;;;;6.57;2.30;;;;;;;;;;5085349;28;20452;-64
2023/03/12 09:11:31;;;;;;;5.00;2.80;;;;;;;;;;5096072;28;20490;-64
2023/03/12 09:13:58;;;;;;;6.70;4.00;;;;;;;;;;5086921;28;20451;-64
2023/03/12 09:16:24;;;;;;;2.70;2.27;;;;;;;;;;5090534;28;20484;-64
2023/03/12 09:18:52;;;;;;;5.73;2.47;;;;;;;;;;5094087;28;20474;-64
2023/03/12 09:21:18;;;;;;;3.13;2.37;;;;;;;;;;5083564;28;20498;-64
2023/03/12 09:23:45;;;;;;;6.63;2.63;;;;;;;;;;5095398;28;20459;-64
2023/03/12 09:26:12;;;;;;;5.53;2.73;;;;;;;;;;5083553;28;20478;-64
2023/03/12 09:28:39;;;;;;;8.87;2.63;;;;;;;;;;5081975;28;20487;-63
2023/03/12 09:31:06;;;;;;;4.23;3.37;;;;;;;;;;5084093;28;20480;-64
2023/03/12 09:33:34;;;;;;;3.03;2.67;;;;;;;;;;5091640;28;20452;-64
2023/03/12 09:36:02;;;;;;;8.27;4.00;;;;;;;;;;5083207;28;20484;-63
2023/03/12 09:38:30;;;;;;;8.17;3.10;;;;;;;;;;5089995;28;20604;-64
2023/03/12 09:40:57;;;;;;;6.43;3.13;;;;;;;;;;5083373;28;21016;-64
2023/03/12 09:43:26;;;;;;;3.80;2.97;;;;;;;;;;5089175;28;20486;-64
2023/03/12 09:45:53;;;;;;;7.27;3.43;;;;;;;;;;5082978;28;20510;-64
2023/03/12 09:48:23;;;;;;;4.33;2.90;;;;;;;;;;5091984;28;20450;-64
2023/03/12 09:50:50;;;;;;;9.37;5.10;;;;;;;;;;5091241;28;20476;-64
2023/03/12 09:53:23;;;;;;;4.50;3.60;;;;;;;;;;5082955;28;20455;-64
2023/03/12 09:55:50;;;;;;;6.47;3.57;;;;;;;;;;5094541;28;20516;-64
2023/03/12 09:58:22;;;;;;;7.13;3.73;;;;;;;;;;5081501;28;20508;-64
2023/03/12 10:00:48;;;;;;;9.17;4.40;;;;;;;;;;5079534;28;20538;-63
2023/03/12 10:03:30;;;;;;;6.10;3.90;;;;;;;;;;5081087;28;20452;-64
2023/03/12 10:06:02;;;;;;;4.83;3.57;;;;;;;;;;5085057;28;20527;-64
2023/03/12 10:08:35;;;;;;;7.13;3.50;;;;;;;;;;5087885;28;20462;-64
2023/03/12 10:11:05;;;;;;;7.03;4.33;;;;;;;;;;5086682;28;20524;-64
2023/03/12 10:13:47;;;;;;;13.43;7.20;;;;;;;;;;5080981;28;20493;-64
2023/03/12 10:16:20;;;;;;;6.97;4.97;;;;;;;;;;5084949;28;20478;-64
2023/03/12 10:18:54;;;;;;;9.70;6.83;;;;;;;;;;5085219;28;20510;-64
2023/03/12 10:21:26;;;;;;;11.40;6.10;;;;;;;;;;5081315;28;20858;-64
2023/03/12 10:23:59;;;;;;;9.30;5.87;;;;;;;;;;5093403;28;20473;-64
2023/03/12 10:26:30;;;;;;;12.53;4.90;;;;;;;;;;5087964;28;20524;-64
2023/03/12 10:28:58;;;;;;;9.10;4.37;;;;;;;;;;5089130;28;20522;-63
2023/03/12 10:31:26;;;;;;;9.00;5.67;;;;;;;;;;5080319;28;20510;-64
2023/03/12 10:33:55;;;;;;;10.90;5.83;;;;;;;;;;5090585;28;20485;-63
2023/03/12 10:36:24;;;;;;;20.13;10.60;;;;;;;;;;5085402;28;20486;-64
2023/03/12 10:38:50;;;;;;;7.20;5.50;;;;;;;;;;5085034;28;20529;-63
2023/03/12 10:41:19;;;;;;;8.40;5.70;;;;;;;;;;5076312;28;20525;-63
2023/03/12 10:43:45;;;;;;;7.63;5.57;;;;;;;;;;5085566;28;20486;-63
2023/03/12 10:46:30;;;;;;;10.03;6.20;;;;;;;;;;5080457;28;20502;-64
2023/03/12 10:49:11;;;;;;;10.33;7.43;;;;;;;;;;5073932;28;20461;-63
2023/03/12 10:51:53;;;;;;;9.27;5.37;;;;;;;;;;5085710;28;20495;-63
2023/03/12 10:54:22;;;;;;;9.90;6.37;;;;;;;;;;5078375;28;20468;-63
2023/03/12 10:56:50;;;;;;;9.67;6.67;;;;;;;;;;5077615;28;20571;-63
2023/03/12 10:59:21;;;;;;;11.43;6.77;;;;;;;;;;5079152;28;20454;-63
2023/03/12 11:01:48;;;;;;;8.47;6.93;;;;;;;;;;5077253;28;20534;-64
2023/03/12 11:04:16;;;;;;;9.63;6.70;;;;;;;;;;5080060;28;20454;-63
2023/03/12 11:06:43;;;;;;;8.83;7.07;;;;;;;;;;5082815;28;20523;-64
2023/03/12 11:09:16;;;;;;;9.77;7.53;;;;;;;;;;5079787;28;20493;-63
2023/03/12 11:11:44;;;;;;;8.50;7.20;;;;;;;;;;5082564;28;20481;-63
2023/03/12 11:14:17;;;;;;;9.20;7.63;;;;;;;;;;5078803;28;20467;-63
2023/03/12 11:16:43;;;;;;;7.40;6.70;;;;;;;;;;5080819;28;20832;-63
2023/03/12 11:19:12;;;;;;;7.57;6.87;;;;;;;;;;5083141;28;20446;-65
2023/03/12 11:21:39;;;;;;;10.80;9.03;;;;;;;;;;5081638;28;20518;-63
2023/03/12 11:24:07;;;;;;;9.00;7.43;;;;;;;;;;5075488;28;20930;-63
2023/03/12 11:26:36;;;;;;;8.27;7.47;;;;;;;;;;5082958;28;20503;-63
2023/03/12 11:29:05;;;;;;;8.40;7.47;;;;;;;;;;5086551;28;20479;-63
2023/03/12 11:31:34;;;;;;;9.63;8.43;;;;;;;;;;5078234;28;20479;-63
2023/03/12 11:34:04;;;;;;;8.30;6.90;;;;;;;;;;5084153;28;20455;-63
2023/03/12 11:36:42;;;;;;;10.47;8.87;;;;;;;;;;5086262;28;20479;-63
2023/03/12 11:39:14;;;;;;;7.73;7.00;;;;;;;;;;5081287;28;21019;-62
2023/03/12 11:41:46;;;;;;;8.00;7.00;;;;;;;;;;5080539;28;20482;-62
2023/03/12 11:44:19;;;;;;;7.80;7.00;;;;;;;;;;5079877;28;20451;-60
2023/03/12 11:46:59;;;;;;;7.90;7.10;;;;;;;;;;5074616;28;20473;-61
2023/03/12 11:49:32;;;;;;;10.83;9.17;;;;;;;;;;5079410;28;20451;-60
2023/03/12 11:52:02;;;;;;;8.53;7.63;;;;;;;;;;5090961;28;20484;-60
2023/03/12 11:54:39;;;;;;;10.53;7.53;;;;;;;;;;5082489;28;20910;-60
2023/03/12 11:57:09;;;;;;;9.47;8.10;;;;;;;;;;5080925;28;20504;-59
2023/03/12 11:59:52;;;;;;;7.97;7.10;;;;;;;;;;5072825;28;20528;-59
2023/03/12 12:02:27;;;;;;;8.40;7.60;;;;;;;;;;5082360;28;20480;-59
2023/03/12 12:04:59;;;;;;;14.50;10.70;;;;;;;;;;5081308;28;20459;-59
2023/03/12 12:07:35;;;;;;;14.87;11.80;;;;;;;;;;5086468;28;20560;-59
2023/03/12 12:10:03;;;;;;;8.13;7.33;;;;;;;;;;5082496;28;20447;-61
2023/03/12 12:12:43;;;;;;;9.17;8.20;;;;;;;;;;5080920;28;20484;-60
2023/03/12 12:15:14;;;;;;;9.23;8.10;;;;;;;;;;5079465;28;20455;-59
2023/03/12 12:17:48;;;;;;;12.00;9.07;;;;;;;;;;5077275;28;20514;-59
2023/03/12 12:20:20;;;;;;;8.53;7.63;;;;;;;;;;5080602;28;20479;-59
2023/03/12 12:22:52;;;;;;;9.27;8.20;;;;;;;;;;5080640;28;20492;-59
2023/03/12 12:25:30;;;;;;;11.50;8.97;;;;;;;;;;5085297;28;20943;-59
2023/03/12 12:28:05;;;;;;;10.80;8.93;;;;;;;;;;5079940;28;20453;-60
2023/03/12 12:30:47;;;;;;;10.20;8.93;;;;;;;;;;5079647;28;20471;-60
2023/03/12 12:33:23;;;;;;;11.10;9.37;;;;;;;;;;5080423;28;20532;-60
2023/03/12 12:35:49;;;;;;;12.00;10.77;;;;;;;;;;5079501;28;20483;-60
2023/03/12 12:38:18;;;;;;;12.67;10.00;;;;;;;;;;5082274;28;20488;-60
2023/03/12 12:40:47;;;;;;;11.90;10.40;;;;;;;;;;5078695;28;20516;-60
2023/03/12 12:43:20;;;;;;;11.67;10.27;;;;;;;;;;5079600;28;20457;-59
2023/03/12 12:45:47;;;;;;;11.17;10.00;;;;;;;;;;5084730;28;20472;-60
2023/03/12 12:48:16;;;;;;;12.87;10.13;;;;;;;;;;5080356;28;20479;-60
2023/03/12 12:50:46;;;;;;;11.80;10.60;;;;;;;;;;5080722;28;20527;-59
2023/03/12 12:53:15;;;;;;;13.97;11.83;;;;;;;;;;5085142;28;20461;-60
2023/03/12 12:55:46;;;;;;;14.00;11.13;;;;;;;;;;5077115;28;20514;-64
2023/03/12 12:58:15;;;;;;;12.40;11.10;;;;;;;;;;5082671;28;20500;-62
2023/03/12 13:00:46;;;;;;;12.73;11.00;;;;;;;;;;5076127;28;20541;-60
2023/03/12 13:03:14;;;;;;;13.60;11.73;;;;;;;;;;5076904;28;20502;-60
2023/03/12 13:05:44;;;;;;;14.37;11.40;;;;;;;;;;5077354;28;21312;-60
2023/03/12 13:08:31;;;;;;;13.27;11.87;;;;;;;;;;5079176;28;20456;-60
2023/03/12 13:10:57;;;;;;;15.23;12.00;;;;;;;;;;5080682;28;20469;-60
2023/03/12 13:13:24;;;;;;;16.83;13.80;;;;;;;;;;5076904;28;20483;-60
2023/03/12 13:15:50;;;;;;;16.60;12.93;;;;;;;;;;5084768;28;20487;-60
2023/03/12 13:18:24;;;;;;;13.77;12.37;;;;;;;;;;5084885;28;20870;-60
2023/03/12 13:21:14;;;;;;;13.37;11.97;;;;;;;;;;5076927;28;20546;-60
2023/03/12 13:23:47;;;;;;;12.80;11.50;;;;;;;;;;5073833;28;20486;-60
2023/03/12 13:26:18;;;;;;;14.83;12.73;;;;;;;;;;5079144;28;20518;-60
2023/03/12 13:28:58;;;;;;;14.50;11.30;;;;;;;;;;5081053;28;20475;-60
2023/03/12 13:31:43;;;;;;;13.53;12.10;;;;;;;;;;5083992;28;20515;-60
2023/03/12 13:34:34;;;;;;;13.17;11.83;;;;;;;;;;5088811;28;20450;-60
2023/03/12 13:37:01;;;;;;;13.33;12.00;;;;;;;;;;5064211;28;20959;-60
2023/03/12 13:39:33;;;;;;;12.07;10.70;;;;;;;;;;5059320;28;20519;-60
2023/03/12 13:42:01;;;;;;;14.40;11.80;;;;;;;;;;5059982;28;20479;-60
2023/03/12 13:44:36;;;;;;;13.50;12.17;;;;;;;;;;5060271;28;20440;-60
2023/03/12 13:47:04;;;;;;;18.60;14.23;;;;;;;;;;5059595;28;20480;-60
2023/03/12 13:49:35;;;;;;;15.60;13.60;;;;;;;;;;5060522;28;21001;-60
2023/03/12 13:52:08;;;;;;;20.63;16.50;;;;;;;;;;5059427;28;20899;-60
2023/03/12 13:54:41;;;;;;;17.87;15.47;;;;;;;;;;5060441;28;20453;-60
2023/03/12 13:57:11;;;;;;;22.43;15.97;;;;;;;;;;5059667;28;21006;-60
2023/03/12 13:59:43;;;;;;;21.43;16.93;;;;;;;;;;5058764;28;20480;-60
2023/03/12 14:02:22;;;;;;;28.90;18.67;;;;;;;;;;5059920;28;20493;-61
2023/03/12 14:04:48;;;;;;;24.43;18.20;;;;;;;;;;5060460;28;20469;-61
2023/03/12 14:07:21;;;;;;;23.93;18.60;;;;;;;;;;5058617;28;20473;-60
2023/03/12 14:09:54;;;;;;;26.57;20.20;;;;;;;;;;5060741;28;20448;-61
2023/03/12 14:12:22;;;;;;;26.80;20.03;;;;;;;;;;5059670;28;20511;-61
2023/03/12 14:15:04;;;;;;;24.60;19.03;;;;;;;;;;5059068;28;20469;-61
2023/03/12 14:17:31;;;;;;;26.27;18.63;;;;;;;;;;5058709;28;20527;-63
2023/03/12 14:20:01;;;;;;;24.93;20.10;;;;;;;;;;5060124;28;20493;-63
2023/03/12 14:22:30;;;;;;;26.10;20.83;;;;;;;;;;5057642;28;20544;-63
2023/03/12 14:25:00;;;;;;;31.33;20.87;;;;;;;;;;5059930;28;20519;-63
2023/03/12 14:27:28;;;;;;;30.07;21.60;;;;;;;;;;5059516;28;20508;-63
2023/03/12 14:29:56;;;;;;;29.43;21.17;;;;;;;;;;5056537;28;20490;-63
2023/03/12 14:32:24;;;;;;;32.53;21.63;;;;;;;;;;5065534;28;20488;-63
2023/03/12 14:34:52;;;;;;;30.90;21.70;;;;;;;;;;5059672;28;21108;-63
2023/03/12 14:37:21;;;;;;;30.00;23.60;;;;;;;;;;5067089;28;20503;-63
2023/03/12 14:39:50;;;;;;;30.00;22.90;;;;;;;;;;5066725;28;20494;-63
2023/03/12 14:42:27;;;;;;;32.40;22.57;;;;;;;;;;5063685;28;20491;-64